Terminal Aerodrome Forecast
Issued by NWS

Home | Current Version | Previous Version | Text Only | Print | Product List | Glossary On
Versions: 1 2 3 4 5 6 7 8 9 10 11 12 13 14
000
FTUS46 KSEW 170520
TAFCLM
TAF
KCLM 170520Z 1706/1806 00000KT P6SM BKN050 OVC100
      TEMPO 1708/1712 -RA BKN020 OVC040
     FM171200 27005KT P6SM -RA OVC020
     FM171800 29015G23KT P6SM SCT030 SCT120
     FM180000 26005KT P6SM FEW040 BKN150=

USA.gov is the U.S. government's official web portal to all federal, state and local government web resources and services.